createdAt,value
2019-05-25T00:01:13.692Z,96.43
2019-05-25T00:03:46.461Z,96.38
2019-05-25T00:06:19.163Z,96.28
2019-05-25T00:08:51.740Z,96.21
2019-05-25T00:11:24.501Z,96.12
2019-05-25T00:13:57.193Z,96.12
2019-05-25T00:16:29.925Z,96.11
2019-05-25T00:19:03.789Z,95.99
2019-05-25T00:21:36.457Z,96.02
2019-05-25T00:24:12.662Z,95.97
2019-05-25T00:26:43.337Z,95.93
2019-05-25T00:29:17.141Z,95.97
2019-05-25T00:31:49.741Z,96.08
2019-05-25T00:34:22.734Z,96.06
2019-05-25T00:36:56.427Z,96.16
2019-05-25T00:39:28.903Z,96.11
2019-05-25T00:42:01.379Z,96.06
2019-05-25T00:44:34.249Z,96.05
2019-05-25T00:47:06.720Z,96.03
2019-05-25T00:49:39.625Z,95.98
2019-05-25T00:52:12.076Z,95.84
2019-05-25T00:54:44.768Z,95.72
2019-05-25T00:57:17.557Z,95.62
2019-05-25T00:59:50.232Z,95.66
2019-05-25T01:02:23.018Z,95.75
2019-05-25T01:04:55.907Z,95.60
2019-05-25T01:07:28.460Z,95.56
2019-05-25T01:10:01.400Z,95.65
2019-05-25T01:12:34.147Z,95.49
2019-05-25T01:15:08.680Z,95.52
2019-05-25T01:17:41.246Z,95.60
2019-05-25T01:20:15.464Z,95.62
2019-05-25T01:22:48.019Z,95.54
2019-05-25T01:25:22.159Z,95.84
2019-05-25T01:27:55.023Z,96.08
2019-05-25T01:30:27.513Z,96.27
2019-05-25T01:33:00.069Z,96.39
2019-05-25T01:35:33.599Z,96.10
2019-05-25T01:38:06.254Z,95.73
2019-05-25T01:40:38.738Z,95.81
2019-05-25T01:43:11.630Z,95.89
2019-05-25T01:45:44.387Z,95.93
2019-05-25T01:48:17.398Z,96.07
2019-05-25T01:50:49.950Z,96.19
2019-05-25T01:53:22.547Z,96.22
2019-05-25T01:55:56.172Z,96.49
2019-05-25T01:58:29.012Z,96.64
2019-05-25T02:01:01.812Z,96.79
2019-05-25T02:03:34.404Z,96.95
2019-05-25T02:06:07.259Z,97.03
2019-05-25T02:08:39.973Z,97.04
2019-05-25T02:11:13.200Z,97.10
2019-05-25T02:13:46.058Z,97.11
2019-05-25T02:16:18.635Z,97.12
2019-05-25T02:18:51.469Z,97.01
2019-05-25T02:21:24.390Z,96.94
2019-05-25T02:23:56.750Z,96.81
2019-05-25T02:26:29.619Z,96.79
2019-05-25T02:29:02.212Z,96.85
2019-05-25T02:31:35.098Z,96.84
2019-05-25T02:34:07.893Z,96.73
2019-05-25T02:36:40.462Z,96.52
2019-05-25T02:39:13.234Z,96.26
2019-05-25T02:41:45.999Z,96.18
2019-05-25T02:44:18.596Z,96.16
2019-05-25T02:46:51.269Z,96.08
2019-05-25T02:49:23.936Z,96.07
2019-05-25T02:51:56.531Z,96.01
2019-05-25T02:54:29.299Z,95.93
2019-05-25T02:57:01.990Z,95.75
2019-05-25T02:59:34.674Z,95.57
2019-05-25T03:02:07.557Z,95.38
2019-05-25T03:04:40.526Z,95.21
2019-05-25T03:07:13.223Z,94.99
2019-05-25T03:09:48.397Z,94.89
2019-05-25T03:12:21.605Z,94.82
2019-05-25T03:14:54.129Z,94.69
2019-05-25T03:17:27.168Z,94.53
2019-05-25T03:19:59.801Z,94.50
2019-05-25T03:22:32.152Z,94.42
2019-05-25T03:25:07.336Z,94.28
2019-05-25T03:27:39.887Z,94.12
2019-05-25T03:30:13.175Z,93.88
2019-05-25T03:32:45.657Z,93.58
2019-05-25T03:35:19.233Z,93.38
2019-05-25T03:37:52.241Z,93.22
2019-05-25T03:40:25.097Z,93.03
2019-05-25T03:42:57.800Z,92.84
2019-05-25T03:45:30.685Z,92.70
2019-05-25T03:48:03.264Z,92.66
2019-05-25T03:50:35.720Z,92.54
2019-05-25T03:53:08.510Z,92.36
2019-05-25T03:55:41.489Z,92.16
2019-05-25T03:58:14.289Z,91.95
2019-05-25T04:00:47.153Z,91.70
2019-05-25T04:03:20.157Z,91.56
2019-05-25T04:05:53.045Z,91.49
2019-05-25T04:08:25.825Z,91.39
2019-05-25T04:10:58.819Z,91.23
2019-05-25T04:13:31.492Z,91.13
2019-05-25T04:16:04.486Z,91.09
2019-05-25T04:18:36.956Z,91.09
2019-05-25T04:21:09.743Z,91.09
2019-05-25T04:23:42.836Z,90.86
2019-05-25T04:26:22.406Z,90.59
2019-05-25T04:28:49.721Z,90.43
2019-05-25T04:31:22.520Z,90.12
2019-05-25T04:33:55.167Z,89.57
2019-05-25T04:36:27.754Z,89.39
2019-05-25T04:39:00.648Z,89.03
2019-05-25T04:41:33.559Z,88.73
2019-05-25T04:44:06.984Z,88.52
2019-05-25T04:46:39.407Z,87.95
2019-05-25T04:49:11.875Z,87.64
2019-05-25T04:51:44.333Z,87.09
2019-05-25T04:54:16.703Z,85.73
2019-05-25T04:56:49.512Z,84.23
2019-05-25T04:59:23.317Z,82.60
2019-05-25T05:01:55.764Z,80.56
2019-05-25T05:04:28.457Z,79.02
2019-05-25T05:07:01.243Z,77.96
2019-05-25T05:09:33.721Z,77.17
2019-05-25T05:12:06.303Z,77.02
2019-05-25T05:14:38.987Z,76.72
2019-05-25T05:17:11.658Z,76.48
2019-05-25T05:19:44.263Z,76.61
2019-05-25T05:22:16.810Z,76.06
2019-05-25T05:24:49.573Z,76.45
2019-05-25T05:27:22.173Z,76.09
2019-05-25T05:29:54.936Z,75.40
2019-05-25T05:32:28.132Z,75.29
2019-05-25T05:35:00.600Z,75.79
2019-05-25T05:37:33.718Z,76.48
2019-05-25T05:40:08.008Z,76.75
2019-05-25T05:42:41.713Z,76.48
2019-05-25T05:45:14.566Z,76.32
2019-05-25T05:47:49.848Z,76.39
2019-05-25T05:50:22.703Z,76.56
2019-05-25T05:52:57.442Z,76.38
2019-05-25T05:55:32.096Z,75.76
2019-05-25T05:58:04.752Z,75.67
2019-05-25T06:00:37.226Z,75.60
2019-05-25T06:03:10.200Z,75.76
2019-05-25T06:05:43.019Z,75.59
2019-05-25T06:08:16.364Z,76.07
2019-05-25T06:10:49.290Z,76.15
2019-05-25T06:13:22.397Z,76.00
2019-05-25T06:15:56.013Z,76.28
2019-05-25T06:18:28.971Z,75.76
2019-05-25T06:21:01.552Z,75.71
2019-05-25T06:23:34.314Z,76.42
2019-05-25T06:26:06.903Z,76.62
2019-05-25T06:28:39.695Z,76.53
2019-05-25T06:31:12.570Z,76.69
2019-05-25T06:33:45.574Z,77.39
2019-05-25T06:36:18.460Z,78.00
2019-05-25T06:38:51.248Z,78.08
2019-05-25T06:41:24.131Z,78.53
2019-05-25T06:43:56.915Z,78.41
2019-05-25T06:46:29.487Z,77.87
2019-05-25T06:49:01.856Z,76.94
2019-05-25T06:51:34.722Z,77.08
2019-05-25T06:54:07.340Z,77.11
2019-05-25T06:56:40.313Z,76.67
2019-05-25T06:59:13.395Z,76.65
2019-05-25T07:01:46.079Z,77.02
2019-05-25T07:04:18.564Z,76.80
2019-05-25T07:06:51.532Z,76.67
2019-05-25T07:09:24.199Z,76.93
2019-05-25T07:11:56.995Z,74.97
2019-05-25T07:14:29.781Z,74.37
2019-05-25T07:17:02.460Z,74.35
2019-05-25T07:19:35.143Z,74.54
2019-05-25T07:22:09.046Z,75.10
2019-05-25T07:24:41.978Z,75.24
2019-05-25T07:27:14.710Z,75.25
2019-05-25T07:29:47.390Z,74.29
2019-05-25T07:32:20.154Z,73.71
2019-05-25T07:34:52.629Z,73.29
2019-05-25T07:37:26.045Z,73.23
2019-05-25T07:39:58.842Z,71.85
2019-05-25T07:42:31.918Z,71.24
2019-05-25T07:45:06.475Z,70.99
2019-05-25T07:47:39.153Z,68.74
2019-05-25T07:50:12.516Z,67.49
2019-05-25T07:52:45.500Z,67.27
2019-05-25T07:55:18.480Z,67.13
2019-05-25T07:57:51.004Z,67.27
2019-05-25T08:00:24.878Z,68.09
2019-05-25T08:02:57.449Z,66.63
2019-05-25T08:05:34.157Z,65.07
2019-05-25T08:08:08.338Z,63.58
2019-05-25T08:10:40.988Z,63.29
2019-05-25T08:13:15.314Z,63.21
2019-05-25T08:15:48.429Z,61.37
2019-05-25T08:18:21.010Z,61.81
2019-05-25T08:20:53.883Z,61.79
2019-05-25T08:23:26.756Z,61.88
2019-05-25T08:25:59.144Z,62.32
2019-05-25T08:28:33.258Z,63.01
2019-05-25T08:31:06.037Z,62.32
2019-05-25T08:33:38.611Z,62.17
2019-05-25T08:36:11.498Z,61.95
2019-05-25T08:38:44.056Z,60.50
2019-05-25T08:41:16.759Z,59.35
2019-05-25T08:43:49.436Z,58.16
2019-05-25T08:46:22.097Z,58.16
2019-05-25T08:48:55.462Z,57.34
2019-05-25T08:51:46.212Z,57.34
2019-05-25T08:54:36.831Z,56.16
2019-05-25T08:57:44.718Z,53.75
2019-05-25T09:00:35.940Z,55.14
2019-05-25T09:03:44.842Z,55.35
2019-05-25T09:06:35.483Z,55.82
2019-05-25T09:10:02.107Z,54.95
2019-05-25T09:12:42.137Z,54.78
2019-05-25T09:15:15.347Z,53.56
2019-05-25T09:17:47.703Z,52.67
2019-05-25T09:20:20.531Z,50.69
2019-05-25T09:22:52.877Z,49.65
2019-05-25T09:25:25.863Z,49.37
2019-05-25T09:27:58.642Z,49.67
2019-05-25T09:30:31.527Z,50.38
2019-05-25T09:33:04.190Z,50.73
2019-05-25T09:35:36.694Z,49.81
2019-05-25T09:38:09.566Z,50.07
2019-05-25T09:40:42.330Z,49.49
2019-05-25T09:43:15.048Z,49.21
2019-05-25T09:45:47.718Z,47.60
2019-05-25T09:48:20.395Z,47.73
2019-05-25T09:50:53.153Z,47.36
2019-05-25T09:53:25.754Z,47.14
2019-05-25T09:55:58.335Z,45.95
2019-05-25T09:58:31.118Z,45.70
2019-05-25T10:01:03.588Z,47.44
2019-05-25T10:03:36.573Z,47.01
2019-05-25T10:06:12.811Z,47.41
2019-05-25T10:08:43.470Z,46.28
2019-05-25T10:11:16.041Z,46.61
2019-05-25T10:13:48.925Z,48.95
2019-05-25T10:16:57.427Z,54.15
2019-05-25T10:19:48.459Z,54.15
2019-05-25T10:22:39.477Z,56.99
2019-05-25T10:25:47.263Z,58.86
2019-05-25T10:28:21.621Z,59.90
2019-05-25T10:30:54.162Z,61.02
2019-05-25T10:33:26.924Z,62.54
2019-05-25T10:35:59.727Z,62.72
2019-05-25T10:38:32.188Z,63.49
2019-05-25T10:41:05.183Z,64.46
2019-05-25T10:43:37.565Z,65.61
2019-05-25T10:46:10.239Z,66.08
2019-05-25T10:48:43.019Z,66.39
2019-05-25T10:51:15.395Z,65.74
2019-05-25T10:53:48.059Z,63.77
2019-05-25T10:56:21.268Z,62.02
2019-05-25T10:58:53.664Z,61.37
2019-05-25T11:01:27.142Z,62.12
2019-05-25T11:04:00.740Z,61.60
2019-05-25T11:06:34.924Z,62.54
2019-05-25T11:09:08.248Z,63.44
2019-05-25T11:11:40.620Z,63.44
2019-05-25T11:14:13.488Z,63.79
2019-05-25T11:16:46.703Z,61.06
2019-05-25T11:19:19.378Z,60.95
2019-05-25T11:21:52.036Z,61.13
2019-05-25T11:24:24.735Z,61.20
2019-05-25T11:26:59.677Z,60.68
2019-05-25T11:29:31.729Z,60.87
2019-05-25T11:32:06.122Z,61.12
2019-05-25T11:34:38.936Z,59.01
2019-05-25T11:37:15.680Z,59.35
2019-05-25T11:39:46.857Z,59.68
2019-05-25T11:42:19.516Z,59.26
2019-05-25T11:44:55.172Z,58.93
2019-05-25T11:47:27.951Z,59.35
2019-05-25T11:50:00.849Z,58.66
2019-05-25T11:52:33.613Z,58.15
2019-05-25T11:55:09.588Z,58.69
2019-05-25T11:57:42.981Z,60.27
2019-05-25T12:00:24.747Z,63.33
2019-05-25T12:02:52.834Z,66.41
2019-05-25T12:05:25.422Z,68.80
2019-05-25T12:07:58.081Z,69.06
2019-05-25T12:10:30.883Z,68.62
2019-05-25T12:13:03.669Z,69.22
2019-05-25T12:15:36.259Z,67.25
2019-05-25T12:18:09.133Z,66.86
2019-05-25T12:20:41.932Z,65.69
2019-05-25T12:23:14.812Z,65.88
2019-05-25T12:25:47.578Z,63.76
2019-05-25T12:28:19.949Z,62.53
2019-05-25T12:30:52.529Z,61.15
2019-05-25T12:33:25.295Z,61.11
2019-05-25T12:35:58.072Z,59.36
2019-05-25T12:38:30.878Z,57.01
2019-05-25T12:41:03.659Z,57.25
2019-05-25T12:43:36.345Z,57.88
2019-05-25T12:46:08.894Z,58.51
2019-05-25T12:48:41.577Z,57.00
2019-05-25T12:51:17.113Z,57.57
2019-05-25T12:53:48.238Z,58.55
2019-05-25T12:56:20.861Z,57.68
2019-05-25T12:58:53.423Z,59.47
2019-05-25T13:01:26.094Z,57.43
2019-05-25T13:04:00.028Z,58.75
2019-05-25T13:06:32.912Z,56.41
2019-05-25T13:09:07.839Z,55.65
2019-05-25T13:11:40.220Z,56.95
2019-05-25T13:14:14.900Z,55.83
2019-05-25T13:16:47.003Z,55.21
2019-05-25T13:19:19.824Z,54.93
2019-05-25T13:21:52.456Z,55.56
2019-05-25T13:24:25.565Z,56.22
2019-05-25T13:26:58.033Z,56.66
2019-05-25T13:29:30.450Z,55.62
2019-05-25T13:32:03.187Z,55.62
2019-05-25T13:34:35.953Z,53.06
2019-05-25T13:37:08.852Z,52.55
2019-05-25T13:39:41.639Z,53.35
2019-05-25T13:42:14.397Z,52.26
2019-05-25T13:44:46.995Z,51.92
2019-05-25T13:47:19.149Z,51.70
2019-05-25T13:49:51.842Z,49.61
2019-05-25T13:52:24.654Z,49.35
2019-05-25T13:54:57.918Z,48.87
2019-05-25T13:57:30.471Z,47.29
2019-05-25T14:00:03.466Z,47.08
2019-05-25T14:02:35.858Z,47.93
2019-05-25T14:05:09.063Z,47.11
2019-05-25T14:07:41.473Z,45.99
2019-05-25T14:10:14.631Z,45.56
2019-05-25T14:12:46.994Z,43.61
2019-05-25T14:15:19.869Z,41.90
2019-05-25T14:17:52.626Z,39.94
2019-05-25T14:20:25.328Z,40.90
2019-05-25T14:22:57.888Z,41.22
2019-05-25T14:25:30.743Z,41.08
2019-05-25T14:28:03.568Z,42.17
2019-05-25T14:30:36.234Z,40.85
2019-05-25T14:33:08.929Z,41.47
2019-05-25T14:35:42.129Z,43.31
2019-05-25T14:38:14.499Z,43.14
2019-05-25T14:40:47.264Z,43.33
2019-05-25T14:43:20.056Z,42.13
2019-05-25T14:45:53.452Z,40.91
2019-05-25T14:48:26.141Z,41.99
2019-05-25T14:50:59.013Z,41.46
2019-05-25T14:53:31.495Z,40.87
2019-05-25T14:56:05.198Z,40.17
2019-05-25T14:58:37.811Z,39.76
2019-05-25T15:01:10.235Z,42.11
2019-05-25T15:03:42.806Z,42.69
2019-05-25T15:06:15.100Z,43.48
2019-05-25T15:08:47.799Z,43.12
2019-05-25T15:11:20.132Z,40.91
2019-05-25T15:13:52.930Z,39.68
2019-05-25T15:16:25.606Z,38.25
2019-05-25T15:18:57.867Z,37.07
2019-05-25T15:21:30.407Z,37.24
2019-05-25T15:24:04.979Z,36.29
2019-05-25T15:26:37.565Z,35.86
2019-05-25T15:29:11.414Z,36.08
2019-05-25T15:31:44.971Z,36.89
2019-05-25T15:34:17.441Z,38.38
2019-05-25T15:36:50.146Z,39.37
2019-05-25T15:39:22.648Z,40.41
2019-05-25T15:41:58.839Z,41.96
2019-05-25T15:44:34.718Z,41.50
2019-05-25T15:47:09.635Z,41.17
2019-05-25T15:49:44.821Z,42.02
2019-05-25T15:52:15.934Z,42.41
2019-05-25T15:54:49.088Z,42.69
2019-05-25T15:57:21.704Z,42.19
2019-05-25T15:59:53.857Z,42.28
2019-05-25T16:02:36.368Z,43.57
2019-05-25T16:05:00.555Z,44.34
2019-05-25T16:07:35.078Z,44.52
2019-05-25T16:10:09.841Z,45.25
2019-05-25T16:12:43.188Z,45.35
2019-05-25T16:15:18.534Z,46.04
2019-05-25T16:17:52.132Z,46.36
2019-05-25T16:20:24.732Z,47.26
2019-05-25T16:22:57.064Z,48.71
2019-05-25T16:25:30.047Z,48.71
2019-05-25T16:28:02.749Z,48.86
2019-05-25T16:30:35.632Z,49.84
2019-05-25T16:33:12.552Z,51.29
2019-05-25T16:35:42.470Z,51.47
2019-05-25T16:38:14.775Z,52.13
2019-05-25T16:40:46.985Z,53.16
2019-05-25T16:43:19.573Z,54.62
2019-05-25T16:45:52.041Z,56.25
2019-05-25T16:48:24.816Z,58.29
2019-05-25T16:50:57.581Z,59.79
2019-05-25T16:53:30.256Z,61.31
2019-05-25T16:56:02.847Z,63.30
2019-05-25T16:58:35.620Z,65.17
2019-05-25T17:01:08.326Z,66.52
2019-05-25T17:03:41.086Z,67.80
2019-05-25T17:06:13.702Z,68.87
2019-05-25T17:08:46.150Z,69.80
2019-05-25T17:11:19.960Z,70.76
2019-05-25T17:13:52.651Z,71.70
2019-05-25T17:16:25.317Z,72.29
2019-05-25T17:18:57.895Z,73.11
2019-05-25T17:21:30.621Z,74.12
2019-05-25T17:24:03.560Z,75.08
2019-05-25T17:26:36.444Z,75.77
2019-05-25T17:29:08.821Z,76.36
2019-05-25T17:31:41.375Z,76.99
2019-05-25T17:34:14.179Z,77.72
2019-05-25T17:36:46.761Z,77.19
2019-05-25T17:39:19.645Z,76.53
2019-05-25T17:41:53.117Z,76.40
2019-05-25T17:44:25.818Z,76.75
2019-05-25T17:46:58.598Z,77.53
2019-05-25T17:49:31.487Z,77.99
2019-05-25T17:52:04.312Z,78.42
2019-05-25T17:54:37.045Z,79.03
2019-05-25T17:57:09.933Z,79.63
2019-05-25T17:59:45.484Z,80.10
2019-05-25T18:02:18.265Z,80.55
2019-05-25T18:04:51.046Z,81.21
2019-05-25T18:07:23.815Z,81.83
2019-05-25T18:09:56.302Z,82.36
2019-05-25T18:12:30.106Z,82.79
2019-05-25T18:15:02.585Z,83.19
2019-05-25T18:17:35.448Z,83.51
2019-05-25T18:20:10.191Z,83.41
2019-05-25T18:22:43.925Z,83.18
2019-05-25T18:25:16.737Z,83.13
2019-05-25T18:27:49.342Z,83.36
2019-05-25T18:30:23.861Z,83.54
2019-05-25T18:32:56.869Z,83.75
2019-05-25T18:35:29.240Z,84.16
2019-05-25T18:38:02.021Z,84.42
2019-05-25T18:40:34.904Z,84.79
2019-05-25T18:43:07.379Z,85.02
2019-05-25T18:45:39.965Z,85.19
2019-05-25T18:48:12.636Z,85.32
2019-05-25T18:50:45.540Z,85.40
2019-05-25T18:53:18.209Z,85.42
2019-05-25T18:55:50.885Z,85.95
2019-05-25T18:58:23.666Z,86.20
2019-05-25T19:00:56.342Z,86.28
2019-05-25T19:03:29.003Z,86.36
2019-05-25T19:06:02.715Z,86.43
2019-05-25T19:08:35.509Z,86.52
2019-05-25T19:11:08.184Z,86.57
2019-05-25T19:13:40.851Z,86.64
2019-05-25T19:16:14.160Z,86.60
2019-05-25T19:18:46.733Z,86.46
2019-05-25T19:21:19.215Z,86.78
2019-05-25T19:23:52.201Z,86.92
2019-05-25T19:26:24.685Z,87.09
2019-05-25T19:28:57.257Z,86.80
2019-05-25T19:31:29.936Z,87.19
2019-05-25T19:34:02.923Z,86.92
2019-05-25T19:36:35.577Z,86.53
2019-05-25T19:39:09.054Z,86.48
2019-05-25T19:41:41.774Z,86.71
2019-05-25T19:44:14.228Z,86.59
2019-05-25T19:46:46.836Z,86.26
2019-05-25T19:49:19.611Z,85.63
2019-05-25T19:51:52.060Z,85.56
2019-05-25T19:54:24.866Z,85.76
2019-05-25T19:56:57.737Z,86.05
2019-05-25T19:59:30.631Z,86.48
2019-05-25T20:02:03.417Z,86.75
2019-05-25T20:04:35.873Z,86.98
2019-05-25T20:07:08.448Z,86.96
2019-05-25T20:09:41.024Z,87.05
2019-05-25T20:12:13.824Z,87.09
2019-05-25T20:14:46.813Z,86.89
2019-05-25T20:17:19.289Z,86.36
2019-05-25T20:19:51.969Z,86.05
2019-05-25T20:22:25.095Z,85.83
2019-05-25T20:24:57.785Z,85.74
2019-05-25T20:27:30.323Z,86.14
2019-05-25T20:30:02.900Z,86.17
2019-05-25T20:32:36.693Z,86.35
2019-05-25T20:35:10.601Z,86.42
2019-05-25T20:37:43.281Z,86.34
2019-05-25T20:40:16.779Z,86.26
2019-05-25T20:42:49.666Z,86.20
2019-05-25T20:45:22.475Z,86.33
2019-05-25T20:47:55.023Z,86.61
2019-05-25T20:50:27.807Z,86.51
2019-05-25T20:53:00.192Z,86.61
2019-05-25T20:55:32.862Z,86.71
2019-05-25T20:58:05.657Z,86.59
2019-05-25T21:00:38.101Z,86.69
2019-05-25T21:03:10.775Z,86.63
2019-05-25T21:05:50.292Z,86.47
2019-05-25T21:08:17.586Z,86.65
2019-05-25T21:10:50.146Z,86.96
2019-05-25T21:13:22.531Z,87.19
2019-05-25T21:15:55.403Z,87.25
2019-05-25T21:18:28.393Z,87.24
2019-05-25T21:21:01.375Z,87.00
2019-05-25T21:23:34.279Z,86.84
2019-05-25T21:26:07.331Z,86.71
2019-05-25T21:28:41.116Z,86.89
2019-05-25T21:31:13.762Z,87.25
2019-05-25T21:33:46.411Z,87.69
2019-05-25T21:36:19.108Z,88.17
2019-05-25T21:38:51.874Z,88.66
2019-05-25T21:41:24.676Z,89.37
2019-05-25T21:43:57.254Z,89.86
2019-05-25T21:46:30.129Z,90.21
2019-05-25T21:49:03.119Z,90.36
2019-05-25T21:51:35.800Z,90.43
2019-05-25T21:54:08.359Z,90.54
2019-05-25T21:56:41.395Z,90.69
2019-05-25T21:59:14.153Z,90.63
2019-05-25T22:01:47.016Z,90.72
2019-05-25T22:04:19.843Z,90.72
2019-05-25T22:06:52.934Z,90.69
2019-05-25T22:09:25.580Z,90.57
2019-05-25T22:11:58.442Z,90.52
2019-05-25T22:14:31.249Z,90.58
2019-05-25T22:17:04.023Z,90.64
2019-05-25T22:19:36.705Z,90.87
2019-05-25T22:22:09.584Z,91.07
2019-05-25T22:24:43.154Z,91.38
2019-05-25T22:27:15.772Z,91.40
2019-05-25T22:29:48.226Z,91.41
2019-05-25T22:32:21.271Z,91.31
2019-05-25T22:34:54.113Z,91.32
2019-05-25T22:37:26.980Z,91.48
2019-05-25T22:39:59.456Z,91.70
2019-05-25T22:42:32.342Z,91.93
2019-05-25T22:45:07.604Z,92.21
2019-05-25T22:47:40.069Z,92.49
2019-05-25T22:50:12.833Z,92.78
2019-05-25T22:52:45.624Z,92.96
2019-05-25T22:55:18.498Z,93.04
2019-05-25T22:57:51.172Z,93.16
2019-05-25T23:00:24.926Z,93.31
2019-05-25T23:02:57.787Z,93.31
2019-05-25T23:05:30.874Z,93.25
2019-05-25T23:08:03.636Z,93.19
2019-05-25T23:10:36.532Z,93.14
2019-05-25T23:13:08.913Z,93.18
2019-05-25T23:15:41.890Z,93.19
2019-05-25T23:18:14.995Z,93.23
2019-05-25T23:20:47.550Z,93.20
2019-05-25T23:23:20.556Z,93.29
2019-05-25T23:25:53.333Z,93.43
2019-05-25T23:28:25.701Z,93.38
2019-05-25T23:30:58.438Z,93.27
2019-05-25T23:33:31.063Z,93.23
2019-05-25T23:36:03.743Z,93.30
2019-05-25T23:38:36.626Z,93.37
2019-05-25T23:41:09.202Z,93.58
2019-05-25T23:43:41.784Z,93.87
2019-05-25T23:46:14.768Z,93.94
2019-05-25T23:48:47.551Z,94.14
2019-05-25T23:51:20.025Z,94.45
2019-05-25T23:53:52.814Z,94.41
2019-05-25T23:56:25.372Z,94.46
2019-05-25T23:58:58.251Z,94.56
